Time;durP1;ratioP1;P1;durP2;ratioP2;P2;SDS_P1;SDS_P2;PMS_P1;PMS_P2;Temp;Humidity;BMP_temperature;BMP_pressure;BME280_temperature;BME280_humidity;BME280_pressure;Samples;Min_cycle;Max_cycle;Signal;HPM_P1;HPM_P2
2021/01/14 00:02:23;;;;;;;1.05;0.95;;;2.20;99.90;;;;;;5088691;28;20502;-73
2021/01/14 00:04:50;;;;;;;1.00;0.90;;;2.20;99.90;;;;;;5087079;28;20216;-73
2021/01/14 00:07:16;;;;;;;1.63;1.17;;;2.10;99.90;;;;;;5089309;28;20253;-73
2021/01/14 00:09:43;;;;;;;1.73;1.30;;;2.10;99.90;;;;;;5088895;28;20249;-74
2021/01/14 00:12:10;;;;;;;1.10;1.00;;;2.10;99.90;;;;;;5087835;28;20203;-72
2021/01/14 00:14:36;;;;;;;1.83;1.50;;;2.20;99.90;;;;;;5083567;28;20239;-73
2021/01/14 00:17:03;;;;;;;2.80;1.15;;;2.20;99.90;;;;;;5088573;28;20573;-72
2021/01/14 00:19:29;;;;;;;1.55;1.00;;;2.20;99.90;;;;;;5088997;28;20212;-73
2021/01/14 00:21:55;;;;;;;1.30;1.20;;;2.10;99.90;;;;;;5087980;28;20211;-73
2021/01/14 00:24:21;;;;;;;1.80;1.40;;;2.20;99.90;;;;;;5085969;28;20706;-73
2021/01/14 00:26:49;;;;;;;1.35;1.02;;;2.10;99.90;;;;;;5088436;28;20200;-73
2021/01/14 00:29:15;;;;;;;1.20;1.10;;;2.10;99.90;;;;;;5088643;28;20264;-73
2021/01/14 00:31:41;;;;;;;1.25;1.15;;;2.20;99.90;;;;;;5088147;28;20211;-72
2021/01/14 00:34:08;;;;;;;1.70;1.10;;;2.10;99.90;;;;;;5086373;28;20230;-72
2021/01/14 00:37:50;;;;;;;1.08;0.90;;;2.10;99.90;;;;;;5088871;28;20579;-73
2021/01/14 00:39:22;;;;;;;1.48;1.20;;;2.10;99.90;;;;;;5088282;28;20670;-72
2021/01/14 00:41:49;;;;;;;3.50;1.33;;;2.10;99.90;;;;;;5087872;28;20200;-71
2021/01/14 00:44:15;;;;;;;1.58;1.23;;;2.10;99.90;;;;;;5085791;28;20212;-73
2021/01/14 00:46:41;;;;;;;1.85;1.40;;;2.10;99.90;;;;;;5088194;28;20619;-72
2021/01/14 00:49:08;;;;;;;1.48;1.15;;;2.10;99.90;;;;;;5087996;28;20207;-73
2021/01/14 00:51:34;;;;;;;1.10;0.98;;;2.10;99.90;;;;;;5088059;28;20203;-73
2021/01/14 00:54:01;;;;;;;2.00;1.73;;;2.10;99.90;;;;;;5086125;28;20231;-71
2021/01/14 00:56:31;;;;;;;2.40;1.65;;;2.10;99.90;;;;;;5087917;28;20203;-71
2021/01/14 00:58:59;;;;;;;1.90;1.58;;;2.10;99.90;;;;;;5087945;28;20227;-72
2021/01/14 01:01:25;;;;;;;2.15;1.95;;;2.10;99.90;;;;;;5087953;28;20204;-72
2021/01/14 01:03:52;;;;;;;2.45;1.85;;;2.10;99.90;;;;;;5085607;28;20230;-70
2021/01/14 01:06:19;;;;;;;1.65;1.50;;;2.10;99.90;;;;;;5088185;28;20227;-73
2021/01/14 01:08:46;;;;;;;2.10;1.90;;;2.10;99.90;;;;;;5088037;28;20202;-72
2021/01/14 01:11:12;;;;;;;1.70;1.55;;;2.10;99.90;;;;;;5087977;28;20694;-74
2021/01/14 01:13:38;;;;;;;1.98;1.77;;;2.20;99.90;;;;;;5085371;28;20227;-72
2021/01/14 01:16:06;;;;;;;2.15;1.95;;;2.20;99.90;;;;;;5079642;28;20203;-72
2021/01/14 01:18:33;;;;;;;1.80;1.67;;;2.20;99.90;;;;;;5087931;28;20257;-73
2021/01/14 01:20:59;;;;;;;2.05;1.85;;;2.20;99.90;;;;;;5086926;28;20200;-73
2021/01/14 01:23:25;;;;;;;2.50;2.05;;;2.20;99.90;;;;;;5087667;28;20200;-73
2021/01/14 01:25:52;;;;;;;2.40;2.20;;;2.30;99.90;;;;;;5085554;28;20236;-74
2021/01/14 01:28:18;;;;;;;3.40;1.60;;;2.30;99.90;;;;;;5087648;28;20196;-73
2021/01/14 01:30:44;;;;;;;2.20;2.00;;;2.30;99.90;;;;;;5087959;28;20204;-73
2021/01/14 01:33:11;;;;;;;1.95;1.70;;;2.30;99.90;;;;;;5086973;28;20925;-73
2021/01/14 01:35:37;;;;;;;1.60;1.50;;;2.20;99.90;;;;;;5085332;28;20225;-73
2021/01/14 01:38:04;;;;;;;2.45;1.77;;;2.20;99.90;;;;;;5087314;28;20420;-74
2021/01/14 01:40:30;;;;;;;3.67;1.77;;;2.20;99.90;;;;;;5088007;28;20558;-74
2021/01/14 01:42:56;;;;;;;2.00;1.80;;;2.20;99.90;;;;;;5086408;28;20207;-72
2021/01/14 01:45:23;;;;;;;4.22;1.95;;;2.20;99.90;;;;;;5085867;28;20635;-72
2021/01/14 01:47:49;;;;;;;2.65;1.63;;;2.20;99.90;;;;;;5087588;28;20200;-71
2021/01/14 01:50:19;;;;;;;2.78;1.83;;;2.10;99.90;;;;;;5087672;28;20559;-73
2021/01/14 01:52:48;;;;;;;2.15;1.95;;;2.10;99.90;;;;;;5087203;28;20679;-72
2021/01/14 01:55:15;;;;;;;2.00;1.80;;;2.10;99.90;;;;;;5086086;28;20219;-73
2021/01/14 01:57:42;;;;;;;2.40;2.20;;;2.00;99.90;;;;;;5091901;28;20204;-72
2021/01/14 02:00:09;;;;;;;1.65;1.55;;;2.10;99.90;;;;;;5091263;28;20200;-72
2021/01/14 02:02:35;;;;;;;2.60;2.20;;;2.00;99.90;;;;;;5091190;28;20203;-73
2021/01/14 02:05:02;;;;;;;2.00;1.85;;;2.00;99.90;;;;;;5089317;28;20254;-73
2021/01/14 02:07:47;;;;;;;2.97;2.20;;;2.00;99.90;;;;;;5091283;28;20207;-72
2021/01/14 02:10:21;;;;;;;2.33;2.13;;;2.10;99.90;;;;;;5091513;28;20207;-73
2021/01/14 02:13:12;;;;;;;4.47;2.40;;;2.00;99.90;;;;;;5090768;28;20206;-72
2021/01/14 02:15:39;;;;;;;2.80;2.42;;;2.10;99.90;;;;;;5089374;28;20253;-72
2021/01/14 02:18:07;;;;;;;2.20;1.92;;;2.00;99.90;;;;;;5091027;28;20195;-73
2021/01/14 02:20:34;;;;;;;2.17;1.95;;;2.00;99.90;;;;;;5091206;28;20562;-72
2021/01/14 02:23:07;;;;;;;2.22;2.03;;;2.00;99.90;;;;;;5089868;28;20252;-73
2021/01/14 02:25:46;;;;;;;2.85;2.05;;;1.90;99.90;;;;;;5089191;28;20277;-73
2021/01/14 02:28:13;;;;;;;2.42;1.83;;;1.90;99.90;;;;;;5091033;28;20226;-72
2021/01/14 02:30:40;;;;;;;1.85;1.70;;;1.90;99.90;;;;;;5090866;28;20207;-72
2021/01/14 02:33:06;;;;;;;2.70;1.95;;;1.90;99.90;;;;;;5089853;28;20207;-72
2021/01/14 02:35:32;;;;;;;2.95;2.35;;;1.90;99.90;;;;;;5088876;28;20227;-72
2021/01/14 02:37:58;;;;;;;3.72;2.50;;;1.90;99.90;;;;;;5090558;28;20211;-72
2021/01/14 02:40:24;;;;;;;3.15;2.35;;;1.90;99.90;;;;;;5090656;28;20203;-71
2021/01/14 02:42:51;;;;;;;2.78;2.22;;;1.90;99.90;;;;;;5090232;28;20199;-72
2021/01/14 02:45:18;;;;;;;2.35;2.13;;;1.90;99.90;;;;;;5088118;28;20432;-73
2021/01/14 02:47:45;;;;;;;2.42;2.22;;;1.90;99.90;;;;;;5090791;28;20577;-73
2021/01/14 02:50:13;;;;;;;2.95;2.08;;;1.80;99.90;;;;;;5090053;28;20203;-73
2021/01/14 02:52:40;;;;;;;2.33;2.13;;;1.80;99.90;;;;;;5090140;28;20207;-71
2021/01/14 02:55:07;;;;;;;2.50;2.30;;;1.80;99.90;;;;;;5088060;28;20298;-73
2021/01/14 02:57:34;;;;;;;2.50;2.10;;;1.80;99.90;;;;;;5090584;28;20203;-72
2021/01/14 03:00:03;;;;;;;2.60;2.35;;;1.80;99.90;;;;;;5090729;28;20203;-73
2021/01/14 03:02:29;;;;;;;2.78;2.00;;;1.80;99.90;;;;;;5081552;28;20206;-72
2021/01/14 03:04:56;;;;;;;2.70;2.50;;;1.80;99.90;;;;;;5088265;28;20227;-72
2021/01/14 03:07:22;;;;;;;2.30;2.10;;;1.90;99.90;;;;;;5089690;28;20223;-72
2021/01/14 03:09:48;;;;;;;4.30;2.85;;;1.90;99.90;;;;;;5081717;28;20543;-72
2021/01/14 03:12:14;;;;;;;2.00;1.90;;;1.90;99.90;;;;;;5089521;28;20208;-72
2021/01/14 03:17:25;;;;;;;3.00;2.30;;;1.90;99.90;;;;;;5090115;28;20202;-72
2021/01/14 03:19:52;;;;;;;2.40;2.15;;;1.90;99.90;;;;;;5089383;28;20200;-73
2021/01/14 03:22:18;;;;;;;2.63;2.30;;;1.90;99.90;;;;;;5088620;28;20204;-72
2021/01/14 03:24:44;;;;;;;3.40;2.70;;;1.90;99.90;;;;;;5087408;28;20737;-73
2021/01/14 03:27:10;;;;;;;2.60;2.40;;;1.90;99.90;;;;;;5089328;28;20238;-73
2021/01/14 03:29:37;;;;;;;4.50;2.88;;;1.90;99.90;;;;;;5090022;28;20200;-72
2021/01/14 03:32:03;;;;;;;4.15;2.60;;;1.90;99.90;;;;;;5088974;28;20204;-73
2021/01/14 03:34:31;;;;;;;4.28;2.42;;;2.00;99.90;;;;;;5088096;28;20836;-73
2021/01/14 03:36:57;;;;;;;5.60;3.08;;;2.00;99.90;;;;;;5089504;28;20203;-72
2021/01/14 03:39:24;;;;;;;3.35;2.55;;;2.00;99.90;;;;;;5089793;28;20200;-73
2021/01/14 03:41:51;;;;;;;5.70;3.15;;;2.10;99.90;;;;;;5089153;28;20227;-71
2021/01/14 03:44:18;;;;;;;5.47;2.80;;;2.10;99.90;;;;;;5086270;28;20226;-73
2021/01/14 03:46:48;;;;;;;5.03;3.13;;;2.10;99.90;;;;;;5089698;28;20200;-72
2021/01/14 03:49:15;;;;;;;5.10;2.50;;;2.00;99.90;;;;;;5089309;28;20204;-72
2021/01/14 03:51:44;;;;;;;4.28;3.05;;;2.00;99.90;;;;;;5088518;28;20260;-72
2021/01/14 03:54:10;;;;;;;4.20;3.38;;;2.00;99.90;;;;;;5087090;28;20228;-72
2021/01/14 03:56:37;;;;;;;9.15;3.38;;;1.90;99.90;;;;;;5089641;28;20196;-72
2021/01/14 03:59:04;;;;;;;3.55;2.70;;;1.90;99.90;;;;;;5089254;28;20207;-71
2021/01/14 04:01:31;;;;;;;3.33;2.80;;;1.90;99.90;;;;;;5089689;28;20569;-72
2021/01/14 04:03:57;;;;;;;3.08;2.75;;;1.90;99.90;;;;;;5087602;28;20247;-72
2021/01/14 04:06:31;;;;;;;3.78;3.28;;;1.90;99.90;;;;;;5089777;28;20200;-73
2021/01/14 04:08:59;;;;;;;3.88;3.15;;;1.90;99.90;;;;;;5080107;28;20210;-72
2021/01/14 04:11:26;;;;;;;3.53;3.03;;;1.90;99.90;;;;;;5089636;28;20212;-72
2021/01/14 04:13:52;;;;;;;5.82;3.58;;;1.90;99.90;;;;;;5087153;28;20635;-72
2021/01/14 04:16:18;;;;;;;3.63;3.30;;;1.90;99.90;;;;;;5089485;28;20199;-72
2021/01/14 04:18:45;;;;;;;5.90;3.78;;;1.90;99.90;;;;;;5088186;28;20273;-71
2021/01/14 04:21:13;;;;;;;4.32;3.92;;;1.90;99.90;;;;;;5089244;28;20226;-72
2021/01/14 04:23:39;;;;;;;4.65;3.15;;;1.80;99.90;;;;;;5087172;28;20203;-72
2021/01/14 04:26:06;;;;;;;4.95;3.33;;;1.80;99.90;;;;;;5089511;28;20574;-72
2021/01/14 04:28:32;;;;;;;4.38;3.50;;;1.80;99.90;;;;;;5089276;28;20196;-73
2021/01/14 04:30:59;;;;;;;6.78;4.18;;;1.80;99.90;;;;;;5088593;28;20202;-72
2021/01/14 04:33:25;;;;;;;4.20;3.00;;;1.80;99.90;;;;;;5087699;28;20208;-72
2021/01/14 04:35:55;;;;;;;6.05;3.55;;;1.80;99.90;;;;;;5088528;28;20239;-72
2021/01/14 04:38:22;;;;;;;3.83;3.45;;;1.80;99.90;;;;;;5088504;28;20731;-72
2021/01/14 04:40:55;;;;;;;4.88;3.72;;;1.80;99.90;;;;;;5087199;28;20832;-71
2021/01/14 04:43:24;;;;;;;3.63;3.33;;;1.80;99.90;;;;;;5086140;28;20219;-71
2021/01/14 04:45:54;;;;;;;4.13;3.30;;;1.80;99.90;;;;;;5086511;28;20224;-71
2021/01/14 04:48:21;;;;;;;5.00;3.40;;;1.80;99.90;;;;;;5087248;28;20196;-72
2021/01/14 04:50:48;;;;;;;5.72;3.70;;;1.80;99.90;;;;;;5087584;28;20224;-70
2021/01/14 04:53:18;;;;;;;3.92;3.45;;;1.80;99.90;;;;;;5086505;28;20488;-74
2021/01/14 04:55:47;;;;;;;5.65;3.63;;;1.80;99.90;;;;;;5084008;28;20263;-74
2021/01/14 04:58:18;;;;;;;5.38;4.10;;;1.80;99.90;;;;;;5085669;28;20192;-74
2021/01/14 05:00:50;;;;;;;3.92;3.30;;;1.80;99.90;;;;;;5085739;28;20192;-72
2021/01/14 05:03:24;;;;;;;5.07;3.85;;;1.80;99.90;;;;;;5086729;28;20234;-73
2021/01/14 05:05:51;;;;;;;8.65;3.85;;;1.80;99.90;;;;;;5086930;28;20230;-73
2021/01/14 05:08:18;;;;;;;6.15;3.70;;;1.80;99.90;;;;;;5087295;28;20663;-75
2021/01/14 05:10:45;;;;;;;4.78;3.65;;;1.70;99.90;;;;;;5087590;28;20204;-74
2021/01/14 05:13:11;;;;;;;6.28;3.90;;;1.70;99.90;;;;;;5085589;28;20230;-74
2021/01/14 05:15:39;;;;;;;5.72;3.40;;;1.70;99.90;;;;;;5084470;28;20219;-74
2021/01/14 05:18:06;;;;;;;6.40;3.70;;;1.70;99.90;;;;;;5086533;28;20199;-74
2021/01/14 05:20:33;;;;;;;4.00;3.60;;;1.70;99.90;;;;;;5086683;28;20207;-73
2021/01/14 05:23:01;;;;;;;5.78;4.10;;;1.70;99.90;;;;;;5087090;28;20241;-74
2021/01/14 05:25:28;;;;;;;4.07;3.47;;;1.80;99.90;;;;;;5086157;28;20215;-74
2021/01/14 05:27:55;;;;;;;4.05;3.63;;;1.80;99.90;;;;;;5087439;28;20199;-75
2021/01/14 05:30:22;;;;;;;6.72;3.38;;;1.90;99.90;;;;;;5087040;28;20207;-74
2021/01/14 05:32:49;;;;;;;4.50;3.28;;;1.80;99.90;;;;;;5143709;22;20816;-73
2021/01/14 05:35:28;;;;;;;6.03;3.95;;;1.80;99.90;;;;;;5079502;28;20300;-72
2021/01/14 05:38:00;;;;;;;4.78;3.88;;;1.80;99.90;;;;;;5090354;28;20202;-72
2021/01/14 05:40:28;;;;;;;6.53;3.63;;;1.70;99.90;;;;;;5084384;28;20682;-72
2021/01/14 05:43:02;;;;;;;7.05;4.38;;;1.70;99.90;;;;;;5084639;28;20256;-72
2021/01/14 05:45:28;;;;;;;3.50;3.20;;;1.70;99.90;;;;;;5084465;28;20220;-72
2021/01/14 05:48:07;;;;;;;5.70;3.80;;;1.70;99.90;;;;;;5087085;28;20675;-72
2021/01/14 05:50:44;;;;;;;4.75;3.10;;;1.70;99.90;;;;;;5087708;28;20260;-72
2021/01/14 05:53:17;;;;;;;4.63;4.18;;;1.60;99.90;;;;;;5087039;28;20405;-72
2021/01/14 05:55:44;;;;;;;4.63;4.03;;;1.60;99.90;;;;;;5060637;28;20225;-72
2021/01/14 05:58:17;;;;;;;3.65;3.28;;;1.70;99.90;;;;;;5077741;28;20203;-72
2021/01/14 06:00:44;;;;;;;5.20;3.92;;;1.70;99.90;;;;;;5087232;28;20210;-72
2021/01/14 06:03:27;;;;;;;3.78;3.40;;;1.70;99.90;;;;;;5070041;28;20663;-72
2021/01/14 06:05:55;;;;;;;4.28;3.50;;;1.70;99.90;;;;;;5074074;28;20273;-72
2021/01/14 06:08:25;;;;;;;4.57;3.80;;;1.60;99.90;;;;;;5086818;28;20214;-72
2021/01/14 06:10:52;;;;;;;4.65;3.60;;;1.60;99.90;;;;;;5087458;28;20207;-73
2021/01/14 06:13:19;;;;;;;4.30;3.63;;;1.60;99.90;;;;;;5086778;28;20211;-71
2021/01/14 06:15:58;;;;;;;5.05;3.90;;;1.60;99.90;;;;;;5085309;28;20224;-72
2021/01/14 06:18:24;;;;;;;4.75;3.70;;;1.60;99.90;;;;;;5086801;28;20208;-72
2021/01/14 06:20:52;;;;;;;4.30;3.42;;;1.70;99.90;;;;;;5087186;28;20214;-72
2021/01/14 06:23:22;;;;;;;6.43;4.20;;;1.70;99.90;;;;;;5085259;28;20214;-72
2021/01/14 06:25:49;;;;;;;6.20;3.70;;;1.60;99.90;;;;;;5084694;28;20216;-72
2021/01/14 06:28:17;;;;;;;7.55;4.30;;;1.70;99.90;;;;;;5086825;28;20199;-72
2021/01/14 06:31:02;;;;;;;6.53;4.28;;;1.80;99.90;;;;;;5086907;28;20210;-72
2021/01/14 06:33:29;;;;;;;5.13;3.80;;;1.80;99.90;;;;;;5084369;28;20571;-72
2021/01/14 06:36:05;;;;;;;5.78;4.50;;;1.80;99.90;;;;;;5086340;28;20223;-72
2021/01/14 06:38:42;;;;;;;3.97;3.50;;;1.70;99.90;;;;;;5086833;28;20251;-71
2021/01/14 06:41:17;;;;;;;4.70;4.00;;;1.70;99.90;;;;;;5087842;28;20244;-70
2021/01/14 06:43:44;;;;;;;5.20;3.88;;;1.70;99.90;;;;;;5088220;28;20202;-71
2021/01/14 06:46:16;;;;;;;6.53;3.90;;;1.70;99.90;;;;;;5090201;28;20333;-71
2021/01/14 06:48:58;;;;;;;6.72;3.85;;;1.70;99.90;;;;;;5090702;28;20207;-71
2021/01/14 06:51:31;;;;;;;4.70;4.18;;;1.60;99.90;;;;;;5090001;28;20233;-73
2021/01/14 06:54:09;;;;;;;5.18;4.20;;;1.70;99.90;;;;;;5087766;28;20336;-71
2021/01/14 06:56:45;;;;;;;3.80;3.30;;;1.60;99.90;;;;;;5091111;28;20207;-71
2021/01/14 06:59:15;;;;;;;5.30;4.28;;;1.70;99.90;;;;;;5090051;28;20204;-71
2021/01/14 07:01:46;;;;;;;6.32;3.83;;;1.60;99.90;;;;;;5090507;28;20203;-71
2021/01/14 07:04:31;;;;;;;4.85;4.00;;;1.60;99.90;;;;;;5088484;28;20246;-71
2021/01/14 07:07:15;;;;;;;5.40;4.13;;;1.60;99.90;;;;;;5075782;28;20200;-71
2021/01/14 07:09:47;;;;;;;4.70;4.15;;;1.70;99.90;;;;;;5090501;28;20212;-71
2021/01/14 07:12:15;;;;;;;4.72;4.00;;;1.70;99.90;;;;;;5089050;28;20843;-71
2021/01/14 07:14:46;;;;;;;4.95;4.22;;;1.70;99.90;;;;;;5088407;28;20224;-71
2021/01/14 07:17:18;;;;;;;6.68;3.80;;;1.70;99.90;;;;;;5089964;28;20196;-71
2021/01/14 07:19:44;;;;;;;4.25;3.85;;;1.60;99.90;;;;;;5090318;28;20575;-71
2021/01/14 07:22:15;;;;;;;7.60;4.15;;;1.60;99.90;;;;;;5089433;28;20253;-71
2021/01/14 07:24:43;;;;;;;7.85;4.18;;;1.60;99.90;;;;;;5088556;28;20268;-71
2021/01/14 07:27:11;;;;;;;4.20;3.72;;;1.60;99.90;;;;;;5090019;28;20203;-71
2021/01/14 07:29:42;;;;;;;5.28;4.50;;;1.60;99.90;;;;;;5088903;28;20212;-71
2021/01/14 07:32:08;;;;;;;7.70;4.30;;;1.60;99.90;;;;;;5088398;28;20298;-71
2021/01/14 07:34:36;;;;;;;4.20;3.80;;;1.50;99.90;;;;;;5088134;28;20561;-71
2021/01/14 07:37:04;;;;;;;4.30;3.83;;;1.50;99.90;;;;;;5089361;28;20892;-71
2021/01/14 07:39:51;;;;;;;4.70;4.20;;;1.50;99.90;;;;;;5087950;28;20204;-71
2021/01/14 07:42:23;;;;;;;6.68;4.07;;;1.50;99.90;;;;;;5088612;28;20203;-70
2021/01/14 07:44:54;;;;;;;6.18;4.40;;;1.40;99.90;;;;;;5087903;28;20219;-71
2021/01/14 07:47:29;;;;;;;5.25;4.05;;;1.50;99.90;;;;;;5088604;28;20211;-70
2021/01/14 07:49:55;;;;;;;7.25;4.20;;;1.40;99.90;;;;;;5089172;28;20256;-70
2021/01/14 07:52:30;;;;;;;7.93;4.50;;;1.40;99.90;;;;;;5088902;28;20204;-70
2021/01/14 07:55:02;;;;;;;5.05;4.10;;;1.40;99.90;;;;;;5087626;28;20245;-70
2021/01/14 07:57:29;;;;;;;5.20;4.55;;;1.40;99.90;;;;;;5088970;28;20295;-70
2021/01/14 08:00:07;;;;;;;7.80;4.05;;;1.40;99.90;;;;;;5089347;28;20693;-71
2021/01/14 08:03:07;;;;;;;5.85;4.43;;;1.40;99.90;;;;;;5088418;28;20207;-70
2021/01/14 08:05:43;;;;;;;7.53;5.30;;;1.40;99.90;;;;;;5088279;28;20223;-72
2021/01/14 08:08:30;;;;;;;5.38;4.35;;;1.40;99.90;;;;;;5089473;28;20636;-71
2021/01/14 08:11:15;;;;;;;4.90;4.30;;;1.40;99.90;;;;;;5089207;28;20206;-67
2021/01/14 08:14:03;;;;;;;6.07;4.20;;;1.40;99.90;;;;;;5089546;28;20210;-67
2021/01/14 08:16:31;;;;;;;5.10;3.60;;;1.40;99.90;;;;;;5073693;28;20219;-67
2021/01/14 08:19:18;;;;;;;9.20;4.50;;;1.40;99.90;;;;;;5089452;28;20257;-66
2021/01/14 08:21:45;;;;;;;6.85;4.30;;;1.50;99.90;;;;;;5085185;28;20207;-67
2021/01/14 08:24:12;;;;;;;3.97;3.47;;;1.50;99.90;;;;;;5084431;28;21033;-67
2021/01/14 08:26:59;;;;;;;5.18;3.80;;;1.50;99.90;;;;;;5089241;28;21601;-67
2021/01/14 08:29:33;;;;;;;5.80;3.80;;;1.50;99.90;;;;;;5086166;28;20553;-67
2021/01/14 08:32:00;;;;;;;6.72;3.90;;;1.50;99.90;;;;;;5059834;28;20852;-67
2021/01/14 08:34:27;;;;;;;4.93;4.15;;;1.50;99.90;;;;;;5089946;28;20320;-66
2021/01/14 08:36:55;;;;;;;4.75;4.10;;;1.50;99.90;;;;;;5090181;28;20219;-66
2021/01/14 08:39:23;;;;;;;4.25;3.85;;;1.50;99.90;;;;;;5089603;28;20275;-66
2021/01/14 08:41:50;;;;;;;5.80;5.07;;;1.60;99.90;;;;;;5089469;28;20262;-67
2021/01/14 08:44:17;;;;;;;8.23;4.60;;;1.50;99.90;;;;;;5089133;28;20226;-68
2021/01/14 08:46:48;;;;;;;7.53;5.15;;;1.50;99.90;;;;;;5089085;28;20809;-67
2021/01/14 08:49:15;;;;;;;4.72;4.00;;;1.60;99.90;;;;;;5089729;28;20552;-69
2021/01/14 08:51:43;;;;;;;9.02;4.85;;;1.60;99.90;;;;;;5089330;28;20257;-69
2021/01/14 08:54:10;;;;;;;5.22;3.75;;;1.70;99.90;;;;;;5087992;28;20231;-68
2021/01/14 08:56:37;;;;;;;5.35;3.92;;;1.60;99.90;;;;;;5089244;28;20203;-67
2021/01/14 08:59:10;;;;;;;4.93;4.53;;;1.60;99.90;;;;;;5089545;28;20698;-67
2021/01/14 09:01:37;;;;;;;5.25;4.00;;;1.60;99.90;;;;;;5089151;28;20241;-67
2021/01/14 09:04:05;;;;;;;4.65;3.90;;;1.60;99.90;;;;;;5088900;28;20219;-67
2021/01/14 09:06:34;;;;;;;6.60;4.45;;;1.60;99.90;;;;;;5088958;28;20671;-67
2021/01/14 09:09:02;;;;;;;8.27;4.70;;;1.60;99.90;;;;;;5088273;28;20311;-67
2021/01/14 09:11:30;;;;;;;5.75;3.90;;;1.60;99.90;;;;;;5088940;28;20203;-67
2021/01/14 09:14:04;;;;;;;5.25;3.63;;;1.60;99.90;;;;;;5087590;28;20227;-67
2021/01/14 09:16:30;;;;;;;3.50;2.92;;;1.70;99.90;;;;;;5089226;28;20223;-67
2021/01/14 09:18:57;;;;;;;6.50;3.50;;;1.70;99.90;;;;;;5089002;28;20569;-67
2021/01/14 09:21:24;;;;;;;4.57;3.83;;;1.60;99.90;;;;;;5087842;28;20646;-67
2021/01/14 09:23:50;;;;;;;5.63;3.10;;;1.60;99.90;;;;;;5088505;28;20212;-67
2021/01/14 09:26:20;;;;;;;6.50;3.40;;;1.60;99.90;;;;;;5088707;28;20659;-67
2021/01/14 09:28:50;;;;;;;5.80;3.67;;;1.70;99.90;;;;;;5089110;28;20196;-67
2021/01/14 09:31:18;;;;;;;3.95;3.55;;;1.70;99.90;;;;;;5048220;28;20197;-67
2021/01/14 09:33:46;;;;;;;3.72;3.00;;;1.70;99.90;;;;;;5051952;28;20261;-67
2021/01/14 09:36:14;;;;;;;3.72;3.35;;;1.70;99.90;;;;;;5047075;28;20240;-67
2021/01/14 09:38:46;;;;;;;4.40;3.30;;;1.70;99.90;;;;;;5050054;28;20200;-69
2021/01/14 09:41:19;;;;;;;3.63;3.20;;;1.70;99.90;;;;;;5051909;28;20228;-67
2021/01/14 09:43:48;;;;;;;3.10;2.80;;;1.70;99.90;;;;;;5052412;28;20276;-67
2021/01/14 09:46:14;;;;;;;3.97;2.97;;;1.70;99.90;;;;;;5050660;28;20201;-66
2021/01/14 09:48:41;;;;;;;4.78;3.35;;;1.70;99.90;;;;;;5080426;28;20211;-66
2021/01/14 09:51:09;;;;;;;3.47;3.08;;;1.70;99.90;;;;;;5088213;28;20392;-67
2021/01/14 09:53:42;;;;;;;4.75;3.47;;;1.70;99.90;;;;;;5087232;28;20204;-68
2021/01/14 09:56:11;;;;;;;4.07;3.10;;;1.90;99.90;;;;;;5067370;28;20324;-66
2021/01/14 09:58:39;;;;;;;3.20;2.90;;;1.90;99.90;;;;;;5077870;28;20204;-67
2021/01/14 10:01:08;;;;;;;5.00;3.97;;;1.90;99.90;;;;;;5067019;28;20204;-67
2021/01/14 10:03:37;;;;;;;5.05;3.60;;;1.90;99.90;;;;;;5068267;28;20208;-66
2021/01/14 10:06:04;;;;;;;5.30;3.17;;;1.80;99.90;;;;;;5087963;28;20196;-65
2021/01/14 10:08:31;;;;;;;4.78;3.70;;;1.80;99.90;;;;;;5087827;28;20261;-66
2021/01/14 10:10:58;;;;;;;4.80;4.00;;;1.80;99.90;;;;;;5087626;28;20200;-66
2021/01/14 10:13:25;;;;;;;7.72;4.70;;;1.80;99.90;;;;;;5086462;28;20486;-67
2021/01/14 10:15:51;;;;;;;5.75;4.30;;;1.80;99.90;;;;;;5068662;28;20232;-67
2021/01/14 10:18:24;;;;;;;7.57;5.65;;;1.80;99.90;;;;;;5071025;28;20571;-67
2021/01/14 10:21:01;;;;;;;5.10;3.70;;;1.80;99.90;;;;;;5070281;28;20453;-66
2021/01/14 10:23:28;;;;;;;5.40;4.47;;;1.80;99.90;;;;;;5069981;28;20457;-68
2021/01/14 10:25:55;;;;;;;5.63;4.70;;;1.80;99.90;;;;;;5071432;28;20543;-66
2021/01/14 10:28:22;;;;;;;4.25;3.85;;;1.80;99.90;;;;;;5071820;28;20558;-67
2021/01/14 10:30:49;;;;;;;5.93;3.08;;;1.90;99.90;;;;;;5079909;28;20207;-65
2021/01/14 10:33:15;;;;;;;3.95;3.35;;;1.90;99.90;;;;;;5090718;28;20203;-67
2021/01/14 10:35:42;;;;;;;4.20;3.83;;;1.90;99.90;;;;;;5090326;28;20238;-66
2021/01/14 10:38:10;;;;;;;4.20;3.60;;;1.90;99.90;;;;;;5091068;28;20486;-67
2021/01/14 10:40:40;;;;;;;4.32;3.35;;;1.90;99.90;;;;;;5086201;28;20481;-66
2021/01/14 10:43:06;;;;;;;5.20;4.40;;;1.90;99.90;;;;;;5070783;28;20454;-66
2021/01/14 10:45:35;;;;;;;5.05;3.75;;;1.90;99.90;;;;;;5073559;28;20220;-67
2021/01/14 10:48:06;;;;;;;5.72;4.25;;;1.90;99.90;;;;;;5070173;28;20454;-65
2021/01/14 10:50:41;;;;;;;6.07;4.60;;;1.90;99.90;;;;;;5068779;28;20932;-67
2021/01/14 10:53:07;;;;;;;6.15;5.10;;;2.00;99.90;;;;;;5070167;28;20462;-67
2021/01/14 10:55:34;;;;;;;8.55;4.30;;;2.10;99.90;;;;;;5088693;28;20604;-67
2021/01/14 10:58:01;;;;;;;5.10;3.75;;;2.10;99.90;;;;;;5091750;28;20204;-68
2021/01/14 11:00:33;;;;;;;7.22;3.78;;;2.20;99.90;;;;;;5090418;28;20683;-67
2021/01/14 11:03:02;;;;;;;5.20;3.78;;;2.20;99.90;;;;;;5091215;28;20215;-68
2021/01/14 11:05:42;;;;;;;4.00;3.60;;;2.20;99.90;;;;;;5090875;28;20219;-68
2021/01/14 11:08:09;;;;;;;5.60;3.53;;;2.20;99.90;;;;;;5090955;28;20264;-67
2021/01/14 11:10:35;;;;;;;4.35;3.50;;;2.20;99.90;;;;;;5090962;28;20210;-68
2021/01/14 11:13:03;;;;;;;4.30;3.90;;;2.20;99.90;;;;;;5091001;28;20200;-68
2021/01/14 11:15:29;;;;;;;4.20;3.80;;;2.20;99.90;;;;;;5092066;28;20314;-67
2021/01/14 11:17:55;;;;;;;5.05;3.67;;;2.30;99.90;;;;;;5091949;28;20659;-67
2021/01/14 11:20:22;;;;;;;5.22;4.05;;;2.30;99.90;;;;;;5091476;28;20815;-68
2021/01/14 11:22:49;;;;;;;4.43;4.00;;;2.30;99.90;;;;;;5090816;28;20204;-67
2021/01/14 11:25:15;;;;;;;5.90;4.30;;;2.30;99.90;;;;;;5089735;28;20277;-67
2021/01/14 11:27:41;;;;;;;4.80;4.30;;;2.40;99.90;;;;;;5090962;28;20452;-67
2021/01/14 11:30:08;;;;;;;6.10;4.38;;;2.30;99.90;;;;;;5090542;28;20462;-66
2021/01/14 11:32:34;;;;;;;5.55;3.80;;;2.30;99.90;;;;;;5090274;28;20644;-68
2021/01/14 11:35:00;;;;;;;7.18;4.10;;;2.30;99.90;;;;;;5091844;28;20227;-65
2021/01/14 11:37:27;;;;;;;9.30;4.00;;;2.30;99.90;;;;;;5090989;28;20208;-67
2021/01/14 11:39:54;;;;;;;5.22;4.28;;;2.20;99.90;;;;;;5090798;28;20207;-68
2021/01/14 11:42:20;;;;;;;6.20;4.72;;;2.20;99.90;;;;;;5092687;28;20617;-67
2021/01/14 11:44:46;;;;;;;6.32;4.57;;;2.20;99.90;;;;;;5093540;28;20215;-67
2021/01/14 11:47:12;;;;;;;4.45;4.05;;;2.20;99.90;;;;;;5092746;28;20359;-67
2021/01/14 11:49:38;;;;;;;5.53;4.35;;;2.30;99.90;;;;;;5091374;28;20200;-67
2021/01/14 11:52:05;;;;;;;5.70;4.55;;;2.30;99.90;;;;;;5090857;28;20200;-68
2021/01/14 11:54:32;;;;;;;6.05;4.50;;;2.30;99.90;;;;;;5092650;28;20224;-67
2021/01/14 11:56:58;;;;;;;7.03;5.15;;;2.40;99.90;;;;;;5093355;28;20204;-66
2021/01/14 11:59:25;;;;;;;6.90;4.85;;;2.40;99.90;;;;;;5092062;28;20203;-67
2021/01/14 12:01:51;;;;;;;6.10;5.28;;;2.40;99.90;;;;;;5091665;28;20666;-66
2021/01/14 12:04:17;;;;;;;7.68;5.22;;;2.50;99.90;;;;;;5092135;28;20227;-67
2021/01/14 12:06:50;;;;;;;5.20;4.50;;;2.50;99.90;;;;;;5095016;28;20200;-67
2021/01/14 12:09:16;;;;;;;6.53;5.65;;;2.60;99.90;;;;;;5091136;28;20200;-67
2021/01/14 12:11:43;;;;;;;13.25;6.10;;;2.60;99.90;;;;;;5091781;28;20426;-68
2021/01/14 12:14:10;;;;;;;6.72;3.88;;;2.60;99.90;;;;;;5090853;28;20231;-66
2021/01/14 12:16:36;;;;;;;6.28;5.63;;;2.50;99.90;;;;;;5095220;28;20226;-68
2021/01/14 12:19:03;;;;;;;5.60;4.18;;;2.40;99.90;;;;;;5093208;28;20257;-65
2021/01/14 12:21:29;;;;;;;9.00;4.25;;;2.40;99.90;;;;;;5092161;28;20204;-68
2021/01/14 12:23:55;;;;;;;4.68;4.00;;;2.40;99.90;;;;;;5089342;28;20318;-68
2021/01/14 12:26:22;;;;;;;7.05;4.28;;;2.30;99.90;;;;;;5089968;28;20203;-68
2021/01/14 12:28:49;;;;;;;5.25;4.03;;;2.30;99.90;;;;;;5091092;28;20238;-67
2021/01/14 12:31:15;;;;;;;6.32;3.83;;;2.30;99.90;;;;;;5090028;28;20207;-66
2021/01/14 12:33:41;;;;;;;9.38;4.75;;;2.30;99.90;;;;;;5089550;28;20203;-67
2021/01/14 12:36:07;;;;;;;6.10;3.80;;;2.30;99.90;;;;;;5090534;28;20250;-67
2021/01/14 12:38:33;;;;;;;8.95;3.85;;;2.30;99.90;;;;;;5089706;28;20206;-67
2021/01/14 12:41:00;;;;;;;4.00;3.60;;;2.20;99.90;;;;;;5091133;28;20199;-67
2021/01/14 12:43:26;;;;;;;7.22;3.63;;;2.30;99.90;;;;;;5089563;28;20694;-67
2021/01/14 12:45:53;;;;;;;4.05;3.63;;;2.30;99.90;;;;;;5090138;28;20216;-67
2021/01/14 12:48:20;;;;;;;3.72;3.30;;;2.30;99.90;;;;;;5089277;28;20408;-68
2021/01/14 12:50:46;;;;;;;7.70;4.13;;;2.30;99.90;;;;;;5089450;28;20607;-68
2021/01/14 12:53:13;;;;;;;5.03;4.55;;;2.20;99.90;;;;;;5089878;28;20195;-68
2021/01/14 12:55:39;;;;;;;6.15;3.10;;;2.20;99.90;;;;;;5089681;28;20239;-67
2021/01/14 12:58:05;;;;;;;8.77;5.00;;;2.20;99.90;;;;;;5090907;28;20200;-68
2021/01/14 13:00:32;;;;;;;9.43;4.63;;;2.10;99.90;;;;;;5090068;28;20354;-69
2021/01/14 13:02:59;;;;;;;5.97;3.78;;;2.10;99.90;;;;;;5090608;28;20244;-69
2021/01/14 13:05:25;;;;;;;4.88;3.25;;;2.00;99.90;;;;;;5090814;28;20227;-69
2021/01/14 13:07:51;;;;;;;7.05;3.97;;;2.00;99.90;;;;;;5091043;28;20955;-67
2021/01/14 13:10:17;;;;;;;4.03;3.63;;;2.10;99.90;;;;;;5089354;28;20199;-69